Time;durP1;ratioP1;P1;durP2;ratioP2;P2;SDS_P1;SDS_P2;PMS_P1;PMS_P2;Temp;Humidity;BMP_temperature;BMP_pressure;BME280_temperature;BME280_humidity;BME280_pressure;Samples;Min_cycle;Max_cycle;Signal;HPM_P1;HPM_P2
2023/01/26 00:00:42;;;;;;;;;;;;;;;7.71;93.38;102418.06;7359606;19;20424;-62
2023/01/26 00:03:09;;;;;;;;;;;;;;;7.67;93.03;102409.53;7357875;19;19927;-62
2023/01/26 00:05:36;;;;;;;;;;;;;;;7.66;93.10;102413.13;7359911;19;19922;-62
2023/01/26 00:08:03;;;;;;;;;;;;;;;7.64;92.07;102407.13;7335701;19;19922;-62
2023/01/26 00:10:30;;;;;;;;;;;;;;;7.59;92.11;102403.94;7350803;19;19929;-62
2023/01/26 00:12:57;;;;;;;;;;;;;;;7.61;92.27;102402.09;7360726;19;19958;-62
2023/01/26 00:15:24;;;;;;;;;;;;;;;7.62;93.07;102389.81;7357670;19;20081;-62
2023/01/26 00:17:51;;;;;;;;;;;;;;;7.58;92.46;102389.16;7359835;19;20218;-64
2023/01/26 00:20:18;;;;;;;;;;;;;;;7.57;91.96;102390.09;7357807;19;19922;-65
2023/01/26 00:22:45;;;;;;;;;;;;;;;7.56;92.25;102396.28;7359447;19;20567;-64
2023/01/26 00:25:12;;;;;;;;;;;;;;;7.58;93.17;102391.78;7356722;19;19930;-63
2023/01/26 00:27:38;;;;;;;;;;;;;;;7.56;92.77;102393.66;7353282;19;19982;-63
2023/01/26 00:30:05;;;;;;;;;;;;;;;7.57;91.87;102397.94;7358178;19;19921;-63
2023/01/26 00:32:33;;;;;;;;;;;;;;;7.54;91.48;102397.31;7357384;19;19907;-62
2023/01/26 00:35:01;;;;;;;;;;;;;;;7.50;91.63;102387.97;7356074;19;19922;-63
2023/01/26 00:37:28;;;;;;;;;;;;;;;7.47;91.44;102391.59;7359729;19;20026;-62
2023/01/26 00:39:54;;;;;;;;;;;;;;;7.42;91.23;102388.41;7360051;19;19944;-63
2023/01/26 00:42:22;;;;;;;;;;;;;;;7.39;91.54;102398.25;7359735;19;20932;-63
2023/01/26 00:44:49;;;;;;;;;;;;;;;7.36;92.31;102390.59;7357588;19;19946;-63
2023/01/26 00:47:17;;;;;;;;;;;;;;;7.36;91.97;102401.06;7362100;19;20377;-63
2023/01/26 00:49:44;;;;;;;;;;;;;;;7.32;92.41;102393.38;7358393;19;19953;-63
2023/01/26 00:52:12;;;;;;;;;;;;;;;7.28;92.44;102396.28;7358174;19;19926;-63
2023/01/26 00:54:38;;;;;;;;;;;;;;;7.24;92.03;102400.84;7355046;19;19986;-63
2023/01/26 00:57:05;;;;;;;;;;;;;;;7.23;91.95;102396.56;7359888;19;19930;-64
2023/01/26 00:59:32;;;;;;;;;;;;;;;7.19;91.38;102391.59;7354651;19;19933;-63
2023/01/26 01:02:01;;;;;;;;;;;;;;;7.15;92.30;102390.94;7358996;19;19929;-63
2023/01/26 01:04:29;;;;;;;;;;;;;;;7.13;92.58;102397.19;7357398;19;19919;-66
2023/01/26 01:06:58;;;;;;;;;;;;;;;7.08;91.98;102401.84;7359317;19;19922;-62
2023/01/26 01:09:25;;;;;;;;;;;;;;;7.04;91.53;102392.50;7358577;19;21619;-63
2023/01/26 01:11:52;;;;;;;;;;;;;;;6.99;92.45;102395.41;7360167;19;19933;-62
2023/01/26 01:14:19;;;;;;;;;;;;;;;6.95;92.23;102395.69;7357611;19;21847;-63
2023/01/26 01:16:48;;;;;;;;;;;;;;;6.89;92.72;102394.25;7359926;19;20539;-62
2023/01/26 01:19:16;;;;;;;;;;;;;;;6.87;92.74;102389.13;7353454;19;20131;-62
2023/01/26 01:21:43;;;;;;;;;;;;;;;6.86;93.18;102394.41;7356961;19;19926;-62
2023/01/26 01:24:10;;;;;;;;;;;;;;;6.79;93.07;102404.41;7360479;19;19929;-63
2023/01/26 01:26:38;;;;;;;;;;;;;;;6.76;93.62;102399.34;7358899;19;19918;-62
2023/01/26 01:29:05;;;;;;;;;;;;;;;6.79;93.92;102400.97;7359187;19;19930;-62
2023/01/26 01:31:32;;;;;;;;;;;;;;;6.78;93.63;102399.28;7356903;19;19926;-64
2023/01/26 01:33:59;;;;;;;;;;;;;;;6.80;93.06;102413.13;7358431;19;20022;-64
2023/01/26 01:36:28;;;;;;;;;;;;;;;6.80;92.87;102408.72;7356942;19;19994;-66
2023/01/26 01:38:54;;;;;;;;;;;;;;;6.79;93.60;102407.03;7360413;19;20022;-63
2023/01/26 01:41:22;;;;;;;;;;;;;;;6.81;92.80;102414.78;7356597;19;19927;-63
2023/01/26 01:43:49;;;;;;;;;;;;;;;6.79;92.60;102412.28;7357296;19;20614;-65
2023/01/26 01:46:16;;;;;;;;;;;;;;;6.76;93.19;102417.66;7357244;19;19989;-63
2023/01/26 01:48:45;;;;;;;;;;;;;;;6.79;94.25;102417.50;7359528;19;20029;-62
2023/01/26 01:51:15;;;;;;;;;;;;;;;6.75;92.70;102412.53;7358544;19;19922;-62
2023/01/26 01:53:44;;;;;;;;;;;;;;;6.72;92.64;102416.16;7358342;19;19921;-63
2023/01/26 01:56:17;;;;;;;;;;;;;;;6.70;92.61;102417.19;7355515;19;20002;-63
2023/01/26 01:58:45;;;;;;;;;;;;;;;6.68;93.09;102425.13;7356435;19;19922;-63
2023/01/26 02:01:11;;;;;;;;;;;;;;;6.66;92.97;102421.75;7357627;19;19914;-63
2023/01/26 02:03:41;;;;;;;;;;;;;;;6.63;93.08;102427.16;7357958;19;20277;-63
2023/01/26 02:06:11;;;;;;;;;;;;;;;6.62;93.05;102424.63;7355446;19;20372;-64
2023/01/26 02:08:42;;;;;;;;;;;;;;;6.60;93.40;102413.44;7358172;19;20560;-63
2023/01/26 02:11:11;;;;;;;;;;;;;;;6.57;92.88;102409.19;7361380;19;19938;-63
2023/01/26 02:13:39;;;;;;;;;;;;;;;6.57;92.59;102416.19;7363867;19;19998;-63
2023/01/26 02:16:06;;;;;;;;;;;;;;;6.53;93.51;102412.91;7362177;19;19927;-63
2023/01/26 02:18:33;;;;;;;;;;;;;;;6.52;93.00;102403.38;7365215;19;19932;-63
2023/01/26 02:21:02;;;;;;;;;;;;;;;6.50;92.69;102407.03;7364061;19;19925;-63
2023/01/26 02:23:32;;;;;;;;;;;;;;;6.45;93.63;102397.66;7364253;19;20008;-62
2023/01/26 02:26:02;;;;;;;;;;;;;;;6.41;93.69;102409.22;7361788;19;19934;-63
2023/01/26 02:28:29;;;;;;;;;;;;;;;6.37;93.49;102405.09;7363120;19;19986;-63
2023/01/26 02:30:56;;;;;;;;;;;;;;;6.35;93.31;102414.78;7366276;19;19929;-63
2023/01/26 02:33:25;;;;;;;;;;;;;;;6.36;92.75;102410.41;7366255;19;19931;-63
2023/01/26 02:35:52;;;;;;;;;;;;;;;6.34;92.64;102413.13;7362616;19;19911;-64
2023/01/26 02:38:20;;;;;;;;;;;;;;;6.34;93.01;102405.28;7366281;19;19998;-62
2023/01/26 02:40:50;;;;;;;;;;;;;;;6.35;93.32;102421.78;7364261;19;19918;-64
2023/01/26 02:43:17;;;;;;;;;;;;;;;6.37;93.39;102414.72;7363458;19;19998;-64
2023/01/26 02:45:44;;;;;;;;;;;;;;;6.37;92.37;102410.34;7365482;19;19923;-63
2023/01/26 02:48:11;;;;;;;;;;;;;;;6.36;91.82;102410.41;7366125;19;20297;-63
2023/01/26 02:50:38;;;;;;;;;;;;;;;6.33;91.57;102415.81;7363315;19;19925;-63
2023/01/26 02:53:05;;;;;;;;;;;;;;;6.33;91.80;102408.81;7363091;19;20609;-63
2023/01/26 02:55:31;;;;;;;;;;;;;;;6.31;91.84;102415.91;7359778;19;19959;-63
2023/01/26 02:58:01;;;;;;;;;;;;;;;6.33;91.47;102415.81;7363989;19;19933;-64
2023/01/26 03:00:29;;;;;;;;;;;;;;;6.30;91.40;102415.97;7362933;19;19915;-65
2023/01/26 03:02:58;;;;;;;;;;;;;;;6.27;91.20;102424.00;7362295;19;19931;-64
2023/01/26 03:05:25;;;;;;;;;;;;;;;6.28;90.91;102423.91;7363948;19;20352;-63
2023/01/26 03:07:52;;;;;;;;;;;;;;;6.24;90.59;102414.56;7363722;19;20344;-63
2023/01/26 03:10:21;;;;;;;;;;;;;;;6.27;90.49;102424.84;7363834;19;20551;-63
2023/01/26 03:12:47;;;;;;;;;;;;;;;6.25;90.27;102420.63;7364189;19;20697;-63
2023/01/26 03:17:44;;;;;;;;;;;;;;;6.18;91.47;102416.69;7363404;19;19938;-63
2023/01/26 03:27:42;;;;;;;;;;;;;;;6.14;91.13;102428.22;7361813;19;20433;-62
2023/01/26 03:30:10;;;;;;;;;;;;;;;6.15;91.08;102424.66;7357813;19;19919;-63
2023/01/26 03:32:37;;;;;;;;;;;;;;;6.16;91.15;102419.38;7362733;19;19926;-62
2023/01/26 03:35:04;;;;;;;;;;;;;;;6.18;90.72;102417.53;7361613;19;19919;-63
2023/01/26 03:37:35;;;;;;;;;;;;;;;6.14;90.69;102421.25;7362139;19;19927;-63
2023/01/26 03:57:35;;;;;;;;;;;;;;;6.13;92.02;102437.00;7359822;19;19914;-63
2023/01/26 04:00:02;;;;;;;;;;;;;;;6.13;92.33;102427.38;7361535;19;19982;-64
2023/01/26 04:09:59;;;;;;;;;;;;;;;6.19;91.65;102440.13;7360191;19;20542;-63
2023/01/26 04:12:26;;;;;;;;;;;;;;;6.17;91.62;102428.91;7360277;19;19923;-62
2023/01/26 04:22:22;;;;;;;;;;;;;;;6.26;91.58;102425.75;7359991;19;19931;-63
2023/01/26 04:24:49;;;;;;;;;;;;;;;6.26;91.80;102435.38;7358773;19;19937;-63
2023/01/26 04:27:16;;;;;;;;;;;;;;;6.28;92.64;102441.38;7361102;19;19915;-63
2023/01/26 04:29:43;;;;;;;;;;;;;;;6.32;91.91;102435.03;7359933;19;19919;-63
2023/01/26 04:32:10;;;;;;;;;;;;;;;6.33;91.57;102450.66;7360950;19;19930;-63
2023/01/26 04:34:36;;;;;;;;;;;;;;;6.36;92.39;102449.63;7360844;19;19982;-62
2023/01/26 04:37:04;;;;;;;;;;;;;;;6.36;92.82;102457.47;7357656;19;19922;-62
2023/01/26 04:39:31;;;;;;;;;;;;;;;6.41;92.35;102455.44;7363056;19;19939;-63
2023/01/26 04:41:57;;;;;;;;;;;;;;;6.43;92.14;102457.03;7358770;19;20515;-63
2023/01/26 04:44:24;;;;;;;;;;;;;;;6.44;91.96;102466.59;7355241;19;19938;-63
2023/01/26 04:46:51;;;;;;;;;;;;;;;6.44;92.69;102468.34;7359597;19;19926;-64
2023/01/26 04:49:18;;;;;;;;;;;;;;;6.46;92.96;102466.47;7360064;19;19931;-63
2023/01/26 04:51:46;;;;;;;;;;;;;;;6.50;92.56;102465.41;7357845;19;19918;-63
2023/01/26 04:54:12;;;;;;;;;;;;;;;6.57;91.60;102471.94;7359530;19;20022;-63
2023/01/26 04:56:40;;;;;;;;;;;;;;;6.62;91.67;102463.84;7356616;19;19948;-62
2023/01/26 04:59:07;;;;;;;;;;;;;;;6.61;91.60;102470.00;7360153;19;19983;-63
2023/01/26 05:01:33;;;;;;;;;;;;;;;6.62;90.61;102463.84;7358170;19;21583;-63
2023/01/26 05:04:01;;;;;;;;;;;;;;;6.62;91.43;102462.06;7358290;19;20376;-63
2023/01/26 05:06:28;;;;;;;;;;;;;;;6.64;91.96;102455.00;7359393;19;20487;-63
2023/01/26 05:08:56;;;;;;;;;;;;;;;6.66;92.06;102454.88;7360605;19;19919;-63
2023/01/26 05:11:23;;;;;;;;;;;;;;;6.67;91.36;102451.34;7359054;19;20318;-63
2023/01/26 05:13:50;;;;;;;;;;;;;;;6.69;91.61;102459.97;7358020;19;20220;-64
2023/01/26 05:16:17;;;;;;;;;;;;;;;6.64;91.16;102455.00;7356614;19;19931;-63
2023/01/26 05:18:43;;;;;;;;;;;;;;;6.68;91.13;102453.03;7359185;19;19934;-63
2023/01/26 05:21:10;;;;;;;;;;;;;;;6.69;91.34;102460.81;7360229;19;19914;-63
2023/01/26 05:23:39;;;;;;;;;;;;;;;6.70;92.12;102467.72;7358470;19;19955;-63
2023/01/26 05:26:07;;;;;;;;;;;;;;;6.74;92.36;102471.00;7357002;19;19952;-63
2023/01/26 05:28:34;;;;;;;;;;;;;;;6.79;90.94;102466.34;7358459;19;19923;-63
2023/01/26 05:31:01;;;;;;;;;;;;;;;6.78;90.22;102465.50;7357182;19;19926;-63
2023/01/26 05:33:27;;;;;;;;;;;;;;;6.78;90.03;102456.81;7358777;19;20385;-62
2023/01/26 05:35:54;;;;;;;;;;;;;;;6.77;90.53;102465.59;7355678;19;19930;-63
2023/01/26 05:38:21;;;;;;;;;;;;;;;6.77;91.03;102463.81;7359750;19;19927;-63
2023/01/26 05:40:48;;;;;;;;;;;;;;;6.76;91.63;102469.97;7361454;19;19919;-62
2023/01/26 05:43:15;;;;;;;;;;;;;;;6.77;91.61;102463.81;7358093;19;19946;-63
2023/01/26 05:45:45;;;;;;;;;;;;;;;6.79;91.91;102461.97;7356877;19;20714;-63
2023/01/26 05:48:12;;;;;;;;;;;;;;;6.81;91.87;102460.09;7358711;19;19923;-63
2023/01/26 05:50:38;;;;;;;;;;;;;;;6.83;91.48;102467.84;7355817;19;20220;-63
2023/01/26 05:53:05;;;;;;;;;;;;;;;6.85;91.38;102463.41;7357050;19;19993;-64
2023/01/26 05:55:32;;;;;;;;;;;;;;;6.88;91.49;102465.81;7356677;19;19939;-64
2023/01/26 05:57:59;;;;;;;;;;;;;;;6.89;90.94;102472.75;7357098;19;20356;-65
2023/01/26 06:00:26;;;;;;;;;;;;;;;6.91;90.69;102473.47;7359141;19;19941;-63
2023/01/26 06:02:53;;;;;;;;;;;;;;;6.94;90.64;102468.09;7356498;19;20332;-63
2023/01/26 06:05:19;;;;;;;;;;;;;;;6.94;90.66;102464.63;7358635;19;19954;-62
2023/01/26 06:07:46;;;;;;;;;;;;;;;6.94;90.00;102467.25;7356918;19;19921;-63
2023/01/26 06:10:13;;;;;;;;;;;;;;;6.95;90.08;102471.56;7357109;19;19926;-63
2023/01/26 06:12:41;;;;;;;;;;;;;;;6.95;89.90;102469.78;7355259;19;20417;-63
2023/01/26 06:15:09;;;;;;;;;;;;;;;6.97;89.24;102474.91;7357031;19;19919;-64
2023/01/26 06:17:35;;;;;;;;;;;;;;;6.97;88.61;102467.06;7356743;19;19929;-63
2023/01/26 06:20:02;;;;;;;;;;;;;;;6.99;88.12;102475.66;7355584;19;19922;-63
2023/01/26 06:22:29;;;;;;;;;;;;;;;6.98;89.08;102476.59;7355990;19;20615;-63
2023/01/26 06:24:56;;;;;;;;;;;;;;;6.98;89.52;102484.44;7355586;19;20020;-63
2023/01/26 06:27:23;;;;;;;;;;;;;;;6.93;88.75;102481.25;7356170;19;20285;-63
2023/01/26 06:29:50;;;;;;;;;;;;;;;6.95;88.09;102497.72;7354615;19;19931;-62
2023/01/26 06:32:17;;;;;;;;;;;;;;;6.91;87.54;102491.78;7359379;19;19925;-62
2023/01/26 06:34:44;;;;;;;;;;;;;;;6.88;87.57;102489.38;7355986;19;19937;-63
2023/01/26 06:37:12;;;;;;;;;;;;;;;6.84;87.41;102493.09;7353619;19;19918;-63
2023/01/26 06:39:40;;;;;;;;;;;;;;;6.83;87.54;102501.88;7359074;19;19919;-63
2023/01/26 06:42:08;;;;;;;;;;;;;;;6.79;87.41;102500.34;7359344;19;19982;-63
2023/01/26 06:44:35;;;;;;;;;;;;;;;6.81;87.52;102519.41;7355919;19;20359;-63
2023/01/26 06:47:02;;;;;;;;;;;;;;;6.80;87.40;102517.75;7356557;19;19932;-62
2023/01/26 06:49:29;;;;;;;;;;;;;;;6.76;87.93;102514.44;7357328;19;19935;-63
2023/01/26 06:51:58;;;;;;;;;;;;;;;6.77;87.12;102515.28;7357421;19;20022;-62
2023/01/26 06:54:26;;;;;;;;;;;;;;;6.77;87.77;102518.75;7353265;19;19923;-63
2023/01/26 06:56:53;;;;;;;;;;;;;;;6.76;88.02;102527.50;7353486;19;19975;-63
2023/01/26 06:59:20;;;;;;;;;;;;;;;6.77;88.43;102525.75;7363674;19;19925;-63
2023/01/26 07:01:47;;;;;;;;;;;;;;;6.79;89.11;102518.66;7362935;19;20451;-64
2023/01/26 07:04:15;;;;;;;;;;;;;;;6.80;88.63;102522.97;7362809;19;20428;-63
2023/01/26 07:06:42;;;;;;;;;;;;;;;6.80;88.58;102530.81;7363847;19;19919;-64
2023/01/26 07:09:09;;;;;;;;;;;;;;;6.80;89.15;102538.66;7363079;19;19923;-62
2023/01/26 07:11:36;;;;;;;;;;;;;;;6.80;89.08;102534.28;7363727;19;20417;-62
2023/01/26 07:14:03;;;;;;;;;;;;;;;6.83;89.36;102541.09;7361452;19;20083;-64
2023/01/26 07:16:30;;;;;;;;;;;;;;;6.84;89.20;102546.25;7360472;19;19915;-65
2023/01/26 07:18:59;;;;;;;;;;;;;;;6.87;89.72;102543.47;7364603;19;19919;-63
2023/01/26 07:21:26;;;;;;;;;;;;;;;6.86;89.78;102546.16;7363300;19;19974;-62
2023/01/26 07:23:54;;;;;;;;;;;;;;;6.89;90.06;102546.00;7362202;19;20057;-64
2023/01/26 07:26:22;;;;;;;;;;;;;;;6.93;90.42;102550.13;7361315;19;20487;-64
2023/01/26 07:28:49;;;;;;;;;;;;;;;6.98;89.68;102544.63;7359954;19;19923;-63
2023/01/26 07:31:16;;;;;;;;;;;;;;;7.00;89.17;102555.84;7359934;19;20609;-62
2023/01/26 07:33:43;;;;;;;;;;;;;;;7.02;89.29;102546.13;7363476;19;19925;-64
2023/01/26 07:36:10;;;;;;;;;;;;;;;7.06;88.62;102547.66;7359986;19;20035;-63
2023/01/26 07:38:37;;;;;;;;;;;;;;;7.06;88.56;102537.19;7360691;19;19919;-62
2023/01/26 07:41:06;;;;;;;;;;;;;;;7.08;88.87;102525.69;7359439;19;20275;-63
2023/01/26 07:43:33;;;;;;;;;;;;;;;7.07;88.94;102536.25;7360471;19;19919;-62
2023/01/26 07:46:00;;;;;;;;;;;;;;;7.07;89.20;102559.78;7359738;19;19918;-63
2023/01/26 07:48:28;;;;;;;;;;;;;;;7.09;89.29;102577.13;7362857;19;20359;-63
2023/01/26 07:50:57;;;;;;;;;;;;;;;7.12;89.69;102565.59;7358261;19;19938;-64
2023/01/26 07:53:26;;;;;;;;;;;;;;;7.13;89.52;102572.53;7361864;19;19923;-63
2023/01/26 07:55:54;;;;;;;;;;;;;;;7.14;90.01;102569.00;7364007;19;20552;-63
2023/01/26 07:58:20;;;;;;;;;;;;;;;7.16;89.92;102569.75;7359942;19;19950;-64
2023/01/26 08:00:47;;;;;;;;;;;;;;;7.18;89.68;102576.59;7360967;19;20174;-62
2023/01/26 08:03:14;;;;;;;;;;;;;;;7.18;88.70;102573.13;7360003;19;20332;-63
2023/01/26 08:05:42;;;;;;;;;;;;;;;7.21;88.85;102567.72;7359714;19;19922;-63
2023/01/26 08:08:09;;;;;;;;;;;;;;;7.22;88.83;102567.63;7359137;19;19998;-62
2023/01/26 08:10:37;;;;;;;;;;;;;;;7.24;88.31;102573.63;7359265;19;19911;-64
2023/01/26 08:13:04;;;;;;;;;;;;;;;7.20;88.41;102566.03;7359819;19;20308;-64
2023/01/26 08:15:31;;;;;;;;;;;;;;;7.22;88.91;102561.53;7359245;19;20424;-63
2023/01/26 08:17:59;;;;;;;;;;;;;;;7.22;88.78;102564.16;7358553;19;20333;-63
2023/01/26 08:20:26;;;;;;;;;;;;;;;7.20;88.09;102569.50;7361484;19;19915;-62
2023/01/26 08:22:54;;;;;;;;;;;;;;;7.27;90.25;102580.44;7360397;19;19916;-65
2023/01/26 08:25:20;;;;;;;;;;;;;;;7.41;93.85;102579.66;7359832;19;19927;-66
2023/01/26 08:27:48;;;;;;;;;;;;;;;7.43;92.05;102577.78;7358523;19;20259;-63
2023/01/26 08:30:15;;;;;;;;;;;;;;;7.46;90.32;102562.75;7359584;19;20404;-64
2023/01/26 08:32:42;;;;;;;;;;;;;;;7.50;88.68;102568.66;7360910;19;19926;-63
2023/01/26 08:35:09;;;;;;;;;;;;;;;7.50;88.12;102566.88;7360489;19;19919;-61
2023/01/26 08:37:37;;;;;;;;;;;;;;;7.53;87.32;102566.69;7357381;19;19922;-63
2023/01/26 08:40:05;;;;;;;;;;;;;;;7.56;87.10;102568.28;7358036;19;20309;-63
2023/01/26 08:42:32;;;;;;;;;;;;;;;7.55;87.07;102569.22;7357624;19;20385;-64
2023/01/26 08:44:59;;;;;;;;;;;;;;;7.53;86.98;102563.22;7358358;19;19930;-64
2023/01/26 08:47:27;;;;;;;;;;;;;;;7.48;87.50;102573.97;7359429;19;19970;-63
2023/01/26 08:49:54;;;;;;;;;;;;;;;7.46;87.91;102586.31;7358939;19;20364;-62
2023/01/26 08:52:22;;;;;;;;;;;;;;;7.48;87.59;102594.91;7358466;19;19949;-66
2023/01/26 08:54:49;;;;;;;;;;;;;;;7.43;87.69;102599.56;7359487;19;20311;-63
2023/01/26 08:57:16;;;;;;;;;;;;;;;7.40;88.18;102585.81;7356690;19;19919;-62
2023/01/26 08:59:43;;;;;;;;;;;;;;;7.41;89.29;102593.59;7358280;19;20415;-64
2023/01/26 09:02:10;;;;;;;;;;;;;;;7.43;88.62;102590.88;7358980;19;19929;-63
2023/01/26 09:04:38;;;;;;;;;;;;;;;7.43;88.17;102588.25;7356785;19;19927;-64
2023/01/26 09:07:05;;;;;;;;;;;;;;;7.39;88.52;102586.75;7358130;19;20846;-63
2023/01/26 09:09:32;;;;;;;;;;;;;;;7.38;88.87;102591.16;7358296;19;20884;-63
2023/01/26 09:12:00;;;;;;;;;;;;;;;7.39;89.77;102600.69;7357121;19;19922;-63
2023/01/26 09:14:27;;;;;;;;;;;;;;;7.41;89.46;102606.69;7357661;19;19930;-63
2023/01/26 09:16:54;;;;;;;;;;;;;;;7.42;89.51;102615.38;7359754;19;20617;-62
2023/01/26 09:19:21;;;;;;;;;;;;;;;7.49;89.95;102614.09;7357663;19;20463;-63
2023/01/26 09:21:52;;;;;;;;;;;;;;;7.48;89.58;102607.16;7359054;19;19949;-63
2023/01/26 09:24:22;;;;;;;;;;;;;;;7.51;89.97;102612.25;7356724;19;19934;-64
2023/01/26 09:26:49;;;;;;;;;;;;;;;7.48;90.13;102615.03;7357848;19;20014;-63
2023/01/26 09:29:16;;;;;;;;;;;;;;;7.54;90.76;102598.97;7357801;19;19941;-63
2023/01/26 09:31:43;;;;;;;;;;;;;;;7.60;90.20;102609.09;7358088;19;19922;-65
2023/01/26 09:34:10;;;;;;;;;;;;;;;7.63;89.79;102611.50;7358771;19;19922;-63
2023/01/26 09:36:38;;;;;;;;;;;;;;;7.69;90.12;102611.16;7355757;19;19951;-63
2023/01/26 09:39:07;;;;;;;;;;;;;;;7.71;89.44;102602.28;7358281;19;19952;-63
2023/01/26 09:41:35;;;;;;;;;;;;;;;7.74;89.97;102614.34;7325239;19;19929;-63
2023/01/26 09:44:04;;;;;;;;;;;;;;;7.77;88.74;102602.88;7347576;19;19932;-64
2023/01/26 09:46:43;;;;;;;;;;;;;;;7.74;88.67;102609.13;7355489;19;19923;-63
2023/01/26 09:49:13;;;;;;;;;;;;;;;7.74;89.01;102617.81;7355767;19;20427;-67
2023/01/26 09:51:43;;;;;;;;;;;;;;;7.76;88.87;102611.66;7355903;19;19923;-63
2023/01/26 09:54:17;;;;;;;;;;;;;;;7.78;88.69;102615.84;7354648;19;19919;-63
2023/01/26 09:56:44;;;;;;;;;;;;;;;7.78;89.13;102620.25;7356925;19;19925;-63
2023/01/26 09:59:14;;;;;;;;;;;;;;;7.80;89.28;102636.72;7355721;19;19947;-62
2023/01/26 10:01:46;;;;;;;;;;;;;;;7.82;89.13;102637.50;7359206;19;21037;-63
2023/01/26 10:04:14;;;;;;;;;;;;;;;7.81;89.36;102628.78;7357699;19;19922;-62
2023/01/26 10:06:41;;;;;;;;;;;;;;;7.85;90.22;102625.06;7356838;19;19919;-63
2023/01/26 10:09:11;;;;;;;;;;;;;;;7.86;90.32;102633.75;7357246;19;19963;-63
2023/01/26 10:11:41;;;;;;;;;;;;;;;7.86;90.85;102634.59;7355318;19;19959;-63
2023/01/26 10:14:13;;;;;;;;;;;;;;;7.90;90.84;102623.00;7354243;19;19922;-63
2023/01/26 10:16:43;;;;;;;;;;;;;;;7.95;90.45;102625.34;7355756;19;19923;-62
2023/01/26 10:19:14;;;;;;;;;;;;;;;7.99;90.04;102630.31;7355779;19;19960;-63
2023/01/26 10:21:44;;;;;;;;;;;;;;;8.01;90.29;102631.06;7357842;19;19977;-63
2023/01/26 10:24:13;;;;;;;;;;;;;;;8.05;91.13;102622.09;7356999;19;19919;-63
2023/01/26 10:26:40;;;;;;;;;;;;;;;8.09;91.48;102628.81;7354694;19;20045;-64
2023/01/26 10:29:14;;;;;;;;;;;;;;;8.14;91.70;102628.53;7355881;19;20542;-62
2023/01/26 10:31:41;;;;;;;;;;;;;;;8.19;91.67;102634.34;7358907;19;20388;-63
2023/01/26 10:34:11;;;;;;;;;;;;;;;8.24;90.96;102629.69;7365617;19;19930;-65
2023/01/26 10:36:39;;;;;;;;;;;;;;;8.23;90.75;102637.66;7363062;19;19934;-63
2023/01/26 10:39:07;;;;;;;;;;;;;;;8.22;90.69;102639.44;7362987;19;20216;-64
2023/01/26 10:41:35;;;;;;;;;;;;;;;8.21;91.42;102635.13;7361170;19;19933;-63
2023/01/26 10:44:04;;;;;;;;;;;;;;;8.21;92.23;102647.38;7355569;19;20005;-63
2023/01/26 10:46:34;;;;;;;;;;;;;;;8.23;91.78;102630.59;7362377;19;19923;-63
2023/01/26 10:49:11;;;;;;;;;;;;;;;8.24;91.29;102634.91;7360932;19;19962;-62
2023/01/26 10:51:39;;;;;;;;;;;;;;;8.23;90.47;102637.66;7361582;19;19919;-63
2023/01/26 10:54:09;;;;;;;;;;;;;;;8.26;90.48;102626.97;7359711;19;19958;-63
2023/01/26 10:56:42;;;;;;;;;;;;;;;8.31;90.52;102632.81;7362258;19;19929;-64
2023/01/26 10:59:09;;;;;;;;;;;;;;;8.37;90.62;102628.03;7360366;19;19926;-67
2023/01/26 11:01:39;;;;;;;;;;;;;;;8.47;90.33;102623.06;7362280;19;20437;-64
2023/01/26 11:04:11;;;;;;;;;;;;;;;8.55;89.93;102621.66;7360238;19;20250;-63
2023/01/26 11:06:38;;;;;;;;;;;;;;;8.59;88.74;102617.03;7361975;19;19923;-64
2023/01/26 11:09:07;;;;;;;;;;;;;;;8.63;88.95;102621.19;7360105;19;19922;-63
2023/01/26 11:11:34;;;;;;;;;;;;;;;8.65;88.81;102624.53;7361232;19;21013;-65
2023/01/26 11:14:05;;;;;;;;;;;;;;;8.70;89.17;102634.75;7360759;19;20454;-65
2023/01/26 11:16:32;;;;;;;;;;;;;;;8.76;88.52;102635.22;7363619;19;19949;-64
2023/01/26 11:19:00;;;;;;;;;;;;;;;8.82;87.32;102626.13;7360460;19;20304;-63
2023/01/26 11:21:32;;;;;;;;;;;;;;;8.88;87.21;102628.38;7360401;19;19926;-62
2023/01/26 11:24:02;;;;;;;;;;;;;;;8.93;87.59;102639.41;7359455;19;19915;-63
2023/01/26 11:26:31;;;;;;;;;;;;;;;8.93;87.33;102632.38;7361679;19;20039;-64
2023/01/26 11:29:08;;;;;;;;;;;;;;;8.95;86.71;102629.63;7363009;19;20586;-62
2023/01/26 11:31:38;;;;;;;;;;;;;;;9.02;86.85;102629.16;7362262;19;19934;-62
2023/01/26 11:34:13;;;;;;;;;;;;;;;9.06;85.22;102618.44;7363882;19;19918;-63
2023/01/26 11:36:41;;;;;;;;;;;;;;;9.00;85.40;102617.91;7365474;19;20278;-63
2023/01/26 11:39:28;;;;;;;;;;;;;;;9.04;85.71;102615.09;7362242;19;19930;-63
2023/01/26 11:42:02;;;;;;;;;;;;;;;9.04;85.74;102613.28;7363185;19;19927;-65
2023/01/26 11:44:36;;;;;;;;;;;;;;;9.02;85.73;102621.28;7356823;19;20333;-67
2023/01/26 11:47:13;;;;;;;;;;;;;;;9.02;86.31;102609.94;7363053;19;20562;-64
2023/01/26 11:49:41;;;;;;;;;;;;;;;9.01;86.37;102603.00;7360274;19;19930;-63
2023/01/26 11:52:08;;;;;;;;;;;;;;;9.04;86.37;102594.91;7360561;19;19957;-63
2023/01/26 11:54:45;;;;;;;;;;;;;;;9.09;86.34;102610.41;7361989;19;19919;-63
2023/01/26 11:57:22;;;;;;;;;;;;;;;9.09;86.63;102613.88;7360334;19;19932;-63
2023/01/26 11:59:57;;;;;;;;;;;;;;;9.15;86.12;102623.09;7359767;19;20341;-63
2023/01/26 12:02:28;;;;;;;;;;;;;;;9.14;86.31;102603.91;7358748;19;19919;-62
2023/01/26 12:04:59;;;;;;;;;;;;;;;9.06;85.43;102607.94;7363673;19;20784;-63
2023/01/26 12:07:29;;;;;;;;;;;;;;;9.09;85.71;102619.13;7359948;19;20506;-63
2023/01/26 12:09:57;;;;;;;;;;;;;;;9.00;85.80;102617.91;7360449;19;19951;-68
2023/01/26 12:12:36;;;;;;;;;;;;;;;8.94;85.68;102599.06;7359721;19;20636;-64
2023/01/26 12:15:13;;;;;;;;;;;;;;;8.93;86.14;102597.41;7356225;19;19938;-64
2023/01/26 12:17:54;;;;;;;;;;;;;;;8.98;86.80;102603.22;7361391;19;19923;-63
2023/01/26 12:20:26;;;;;;;;;;;;;;;9.01;86.66;102606.47;7358024;19;19964;-63
2023/01/26 12:23:03;;;;;;;;;;;;;;;9.02;86.64;102594.19;7358058;19;20001;-64
2023/01/26 12:25:31;;;;;;;;;;;;;;;9.13;85.97;102596.97;7360775;19;20006;-64
2023/01/26 12:28:09;;;;;;;;;;;;;;;9.18;85.61;102592.25;7363007;19;19922;-63
2023/01/26 12:30:56;;;;;;;;;;;;;;;9.20;86.04;102585.09;7360031;19;20332;-64
2023/01/26 12:33:23;;;;;;;;;;;;;;;9.27;84.54;102594.28;7359673;19;20260;-62
2023/01/26 12:35:51;;;;;;;;;;;;;;;9.27;83.93;102590.81;7361876;19;20324;-64
2023/01/26 12:38:27;;;;;;;;;;;;;;;9.30;84.13;102593.22;7362388;19;19915;-64
2023/01/26 12:40:55;;;;;;;;;;;;;;;9.30;83.87;102591.44;7361753;19;19927;-64
2023/01/26 12:43:23;;;;;;;;;;;;;;;9.30;84.62;102595.84;7363581;19;19945;-63
2023/01/26 12:45:52;;;;;;;;;;;;;;;9.33;84.72;102590.41;7363961;19;19949;-64
2023/01/26 12:48:22;;;;;;;;;;;;;;;9.36;84.39;102591.03;7328299;19;19923;-63
2023/01/26 12:50:52;;;;;;;;;;;;;;;9.40;84.54;102592.50;7349185;19;20063;-64
2023/01/26 12:53:22;;;;;;;;;;;;;;;9.41;83.94;102588.09;7361216;19;20025;-64
2023/01/26 12:55:50;;;;;;;;;;;;;;;9.45;83.55;102595.69;7357479;19;19919;-64
2023/01/26 12:58:20;;;;;;;;;;;;;;;9.50;83.13;102592.75;7352179;19;19923;-63
2023/01/26 13:00:57;;;;;;;;;;;;;;;9.47;83.21;102587.72;7358822;19;20312;-64
2023/01/26 13:03:31;;;;;;;;;;;;;;;9.51;83.25;102590.97;7356503;19;20700;-64
2023/01/26 13:06:00;;;;;;;;;;;;;;;9.53;83.25;102576.78;7356909;19;21537;-63
2023/01/26 13:08:29;;;;;;;;;;;;;;;9.54;82.21;102591.63;7360042;19;19927;-64
2023/01/26 13:10:59;;;;;;;;;;;;;;;9.56;82.65;102583.63;7362463;19;19933;-64
2023/01/26 13:13:32;;;;;;;;;;;;;;;9.57;83.24;102594.03;7361644;19;19998;-64
2023/01/26 13:16:11;;;;;;;;;;;;;;;9.57;83.60;102582.69;7359236;19;19939;-64
2023/01/26 13:18:47;;;;;;;;;;;;;;;9.56;83.42;102592.34;7358892;19;19948;-64
2023/01/26 13:21:24;;;;;;;;;;;;;;;9.58;84.05;102587.84;7359567;19;19930;-65
2023/01/26 13:23:51;;;;;;;;;;;;;;;9.55;84.38;102585.41;7360745;19;20314;-64
2023/01/26 13:26:22;;;;;;;;;;;;;;;9.54;85.65;102581.13;7356313;19;19927;-63
2023/01/26 13:28:49;;;;;;;;;;;;;;;9.50;86.29;102600.63;7357852;19;19993;-62
2023/01/26 13:31:26;;;;;;;;;;;;;;;9.46;86.83;102599.16;7359814;19;19939;-63
2023/01/26 13:33:54;;;;;;;;;;;;;;;9.41;87.37;102593.38;7361272;19;19946;-64
2023/01/26 13:36:22;;;;;;;;;;;;;;;9.38;87.95;102593.56;7360234;19;19922;-63